Time;durP1;ratioP1;P1;durP2;ratioP2;P2;SDS_P1;SDS_P2;PMS_P1;PMS_P2;Temp;Humidity;BMP_temperature;BMP_pressure;BME280_temperature;BME280_humidity;BME280_pressure;Samples;Min_cycle;Max_cycle;Signal;HPM_P1;HPM_P2
2024/02/03 00:00:30;;;;;;;;;8.00;7.00;;;;;-144.24;100.00;86979.59;5067606;28;45608;-70
2024/02/03 00:02:55;;;;;;;;;10.33;9.00;;;;;-144.24;100.00;86878.41;5048755;28;57504;-70
2024/02/03 00:05:21;;;;;;;;;10.33;9.00;;;;;-144.24;100.00;86706.41;5072245;28;45411;-70
2024/02/03 00:07:46;;;;;;;;;11.00;8.00;;;;;-144.24;100.00;86546.56;5068216;28;45513;-70
2024/02/03 00:10:11;;;;;;;;;8.00;7.00;;;;;-144.24;100.00;86489.91;5051631;28;52040;-70
2024/02/03 00:12:37;;;;;;;;;7.67;7.67;;;;;-144.24;100.00;86319.94;5056848;28;45602;-71
2024/02/03 00:15:03;;;;;;;;;9.00;9.00;;;;;-144.24;100.00;86315.91;5037865;28;55080;-70
2024/02/03 00:17:28;;;;;;;;;8.33;7.33;;;;;-144.24;100.00;86241.03;5038922;28;45249;-70
2024/02/03 00:19:53;;;;;;;;;9.00;7.33;;;;;-144.24;100.00;86111.56;5056618;28;45534;-71
2024/02/03 00:22:19;;;;;;;;;12.33;7.00;;;;;-144.24;100.00;85978.03;5055249;28;74240;-72
2024/02/03 00:24:44;;;;;;;;;7.00;5.00;;;;;-144.24;100.00;85761.56;5056349;28;45328;-72
2024/02/03 00:27:10;;;;;;;;;7.00;7.00;;;;;-144.24;100.00;85658.38;5060410;28;66459;-72
2024/02/03 00:29:35;;;;;;;;;7.00;7.00;;;;;-144.24;100.00;85599.72;5049407;28;57641;-71
2024/02/03 00:32:00;;;;;;;;;9.67;9.00;;;;;-144.24;100.00;85423.72;5031803;28;48268;-70
2024/02/03 00:34:26;;;;;;;;;8.00;8.00;;;;;-144.24;100.00;85110.19;5040526;28;69958;-69
2024/02/03 00:36:51;;;;;;;;;8.00;7.00;;;;;-144.24;100.00;84986.81;5072992;28;59903;-70
2024/02/03 00:39:16;;;;;;;;;9.33;7.33;;;;;-144.24;100.00;84636.94;5054740;28;63720;-69
2024/02/03 00:41:41;;;;;;;;;6.33;6.33;;;;;-144.24;100.00;84628.84;5075621;28;68079;-71
2024/02/03 00:44:07;;;;;;;;;9.00;8.00;;;;;-144.24;100.00;84450.88;5077003;28;45453;-70
2024/02/03 00:46:32;;;;;;;;;8.33;7.67;;;;;-144.24;100.00;84240.53;5058096;28;49053;-70
2024/02/03 00:48:57;;;;;;;;;7.00;7.00;;;;;-144.24;100.00;84163.69;5077034;28;45403;-70
2024/02/03 00:51:23;;;;;;;;;7.33;7.33;;;;;-144.24;100.00;84127.28;5057072;28;67374;-71
2024/02/03 00:53:48;;;;;;;;;8.67;7.00;;;;;-144.24;100.00;83854.31;5055577;28;69975;-70
2024/02/03 00:56:13;;;;;;;;;8.00;4.00;;;;;-144.24;100.00;83939.25;5055556;28;52076;-70
2024/02/03 00:58:39;;;;;;;;;8.67;8.00;;;;;-144.24;100.00;83848.25;5074508;28;45577;-70
2024/02/03 01:01:04;;;;;;;;;6.33;6.33;;;;;-144.24;100.00;83892.72;5072911;28;73162;-71
2024/02/03 01:03:29;;;;;;;;;8.00;8.00;;;;;-144.24;100.00;83510.56;5057177;28;63795;-70
2024/02/03 01:05:55;;;;;;;;;6.33;6.33;;;;;-144.24;100.00;83429.69;5057606;28;58750;-70
2024/02/03 01:08:20;;;;;;;;;9.67;4.67;;;;;-144.24;100.00;83490.34;5053775;28;62350;-72
2024/02/03 01:10:46;;;;;;;;;6.33;6.33;;;;;-144.24;100.00;83415.56;5060628;28;45878;-70
2024/02/03 01:13:11;;;;;;;;;8.67;5.00;;;;;-144.24;100.00;83249.75;5074023;28;45566;-71
2024/02/03 01:15:36;;;;;;;;;7.67;5.00;;;;;-144.24;100.00;83130.47;5075371;28;58679;-70
2024/02/03 01:18:05;;;;;;;;;7.33;5.00;;;;;-144.24;100.00;83138.56;5075144;28;61010;-72
2024/02/03 01:20:31;;;;;;;;;7.33;7.33;;;;;-144.24;100.00;82815.13;5058267;28;46709;-70
2024/02/03 01:22:57;;;;;;;;;4.67;4.33;;;;;-144.24;100.00;82790.84;5057587;28;45359;-70
2024/02/03 01:25:22;;;;;;;;;7.00;7.00;;;;;-144.24;100.00;82679.66;5076525;28;45317;-70
2024/02/03 01:27:48;;;;;;;;;11.00;6.33;;;;;-144.24;100.00;82471.47;5075737;28;45468;-70
2024/02/03 01:30:13;;;;;;;;;6.33;6.33;;;;;-144.24;100.00;82408.81;5074027;28;69205;-70
2024/02/03 01:32:38;;;;;;;;;8.67;7.67;;;;;-144.24;100.00;82364.34;5075454;28;61390;-71
2024/02/03 01:35:04;;;;;;;;;4.00;2.67;;;;;-144.24;100.00;82323.91;5071021;28;64098;-70
2024/02/03 01:37:30;;;;;;;;;7.33;4.67;;;;;-144.24;100.00;82192.53;5056182;28;45427;-70
2024/02/03 01:39:55;;;;;;;;;7.67;4.67;;;;;-144.24;100.00;82334.00;5062071;28;46637;-70
2024/02/03 01:42:21;;;;;;;;;5.67;5.67;;;;;-144.24;100.00;82253.16;5036515;28;70679;-72
2024/02/03 01:44:47;;;;;;;;;5.00;4.00;;;;;-144.24;100.00;82218.81;5024868;28;45467;-71
2024/02/03 01:47:12;;;;;;;;;4.67;4.67;;;;;-144.24;100.00;82137.97;5037578;28;45588;-72
2024/02/03 01:49:37;;;;;;;;;6.33;6.33;;;;;-144.24;100.00;82133.91;5054834;28;68274;-71
2024/02/03 01:52:04;;;;;;;;;5.67;5.00;;;;;-144.24;100.00;81925.75;5054729;28;47467;-71
2024/02/03 01:54:29;;;;;;;;;11.00;4.00;;;;;-144.24;100.00;81576.09;5037935;28;45462;-70
2024/02/03 01:56:57;;;;;;;;;5.00;5.00;;;;;-144.24;100.00;81543.78;5037355;28;45684;-72
2024/02/03 01:59:24;;;;;;;;;4.33;4.33;;;;;-144.24;100.00;81555.91;5032102;28;45449;-69
2024/02/03 02:01:50;;;;;;;;;5.67;5.67;;;;;-144.24;100.00;81642.78;5033180;28;45384;-70
2024/02/03 02:04:16;;;;;;;;;5.00;5.00;;;;;-144.24;100.00;81331.59;5038927;28;45309;-70
2024/02/03 02:06:41;;;;;;;;;5.00;5.00;;;;;-144.24;100.00;81394.22;5032587;28;67506;-70
2024/02/03 02:09:06;;;;;;;;;5.00;5.00;;;;;-144.24;100.00;81287.13;5051731;28;62692;-70
2024/02/03 02:11:32;;;;;;;;;4.00;4.00;;;;;-144.24;100.00;81242.66;5057989;28;66927;-70
2024/02/03 02:13:57;;;;;;;;;7.33;7.33;;;;;-144.24;100.00;81143.66;5058911;28;45468;-70
2024/02/03 02:16:24;;;;;;;;;7.00;4.00;;;;;-144.24;100.00;81192.16;5039877;28;68034;-70
2024/02/03 02:18:50;;;;;;;;;9.67;5.67;;;;;-144.24;100.00;80818.34;5058040;28;46764;-69
2024/02/03 02:21:15;;;;;;;;;3.00;3.00;;;;;-144.24;100.00;80816.31;5060261;28;45367;-70
2024/02/03 02:23:41;;;;;;;;;3.00;3.00;;;;;-144.24;100.00;80697.09;5057096;28;58446;-72
2024/02/03 02:26:06;;;;;;;;;4.67;4.67;;;;;-144.24;100.00;80672.84;5034446;28;59041;-71
2024/02/03 02:28:33;;;;;;;;;4.33;4.00;;;;;-144.24;100.00;80448.59;5041092;28;46415;-70
2024/02/03 02:30:58;;;;;;;;;8.00;5.00;;;;;-144.24;100.00;80313.22;5051970;28;45288;-70
2024/02/03 02:33:24;;;;;;;;;8.00;4.67;;;;;-144.24;100.00;80343.53;5056606;28;45835;-69
2024/02/03 02:35:50;;;;;;;;;3.33;3.00;;;;;-144.24;100.00;80404.16;5067538;28;45464;-71
2024/02/03 02:38:18;;;;;;;;;5.00;4.00;;;;;-144.24;100.00;80313.22;5058417;28;45337;-70
2024/02/03 02:40:43;;;;;;;;;8.00;3.00;;;;;-144.24;100.00;80317.28;5058534;28;45307;-73
2024/02/03 02:43:09;;;;;;;;;4.00;4.00;;;;;-144.24;100.00;80070.81;5040075;28;45561;-70
2024/02/03 02:45:34;;;;;;;;;3.33;3.33;;;;;-144.24;100.00;79987.97;5040388;28;45367;-70
2024/02/03 02:47:59;;;;;;;;;3.33;3.33;;;;;-144.24;100.00;79994.03;5057335;28;75826;-71
2024/02/03 02:50:25;;;;;;;;;3.67;3.33;;;;;-144.24;100.00;80034.44;5057280;28;62756;-70
2024/02/03 02:52:50;;;;;;;;;4.00;3.00;;;;;-144.24;100.00;79979.91;5060886;28;45374;-70
2024/02/03 02:55:15;;;;;;;;;4.00;2.67;;;;;-144.24;100.00;79852.63;5056917;28;63974;-70
2024/02/03 02:57:41;;;;;;;;;1.00;1.00;;;;;-144.24;100.00;79697.09;5058120;28;46681;-70
2024/02/03 03:00:09;;;;;;;;;1.00;1.00;;;;;-144.24;100.00;79618.31;5056771;28;69757;-70
2024/02/03 03:02:35;;;;;;;;;3.33;2.00;;;;;-144.24;100.00;79618.31;5058009;28;45392;-69
2024/02/03 03:05:00;;;;;;;;;2.33;2.00;;;;;-144.24;100.00;79551.66;5058203;28;45514;-71
2024/02/03 03:07:25;;;;;;;;;2.00;2.00;;;;;-144.24;100.00;79604.19;5056131;28;72667;-70
2024/02/03 03:09:51;;;;;;;;;3.00;1.67;;;;;-144.24;100.00;79493.09;5050597;28;64909;-70
2024/02/03 03:12:16;;;;;;;;;4.67;1.67;;;;;-144.24;100.00;79307.25;5051497;28;45510;-70
2024/02/03 03:14:41;;;;;;;;;1.33;1.33;;;;;-144.24;100.00;79301.22;5050278;28;55834;-70
2024/02/03 03:17:07;;;;;;;;;2.67;2.00;;;;;-144.24;100.00;79232.53;5055519;28;64791;-70
2024/02/03 03:19:36;;;;;;;;;3.00;2.00;;;;;-144.24;100.00;79050.75;5054165;28;45281;-70
2024/02/03 03:22:03;;;;;;;;;2.67;2.00;;;;;-144.24;100.00;79083.06;5049820;28;45363;-69
2024/02/03 03:24:28;;;;;;;;;1.33;1.33;;;;;-144.24;100.00;79056.81;5039888;28;45495;-70
2024/02/03 03:26:53;;;;;;;;;2.00;2.00;;;;;-144.24;100.00;79125.50;5045791;28;46665;-70
2024/02/03 03:29:19;;;;;;;;;3.00;2.00;;;;;-144.24;100.00;79091.16;5036343;28;51889;-70
2024/02/03 03:31:44;;;;;;;;;2.00;2.00;;;;;-144.24;100.00;79014.41;5057409;28;45352;-72
2024/02/03 03:34:09;;;;;;;;;1.33;1.33;;;;;-144.24;100.00;79026.53;5062211;28;65276;-70
2024/02/03 03:36:35;;;;;;;;;3.00;2.00;;;;;-144.24;100.00;78915.44;5060804;28;45459;-72
2024/02/03 03:39:00;;;;;;;;;2.00;2.00;;;;;-144.24;100.00;78828.59;5056761;28;67875;-70
2024/02/03 03:41:26;;;;;;;;;1.33;1.33;;;;;-144.24;100.00;78899.28;5039454;28;45510;-71
2024/02/03 03:43:51;;;;;;;;;0.00;0.00;;;;;-144.24;100.00;78883.13;5033809;28;45495;-71
2024/02/03 03:46:16;;;;;;;;;1.00;1.00;;;;;-144.24;100.00;78897.28;5048703;28;71166;-70
2024/02/03 03:48:41;;;;;;;;;2.00;2.00;;;;;-144.24;100.00;78776.09;5038613;28;59418;-72
2024/02/03 03:51:07;;;;;;;;;5.00;1.67;;;;;-144.24;100.00;78703.41;5021977;28;59761;-70
2024/02/03 03:53:32;;;;;;;;;4.67;1.00;;;;;-144.24;100.00;78826.59;5056828;28;45332;-70
2024/02/03 03:55:58;;;;;;;;;2.00;2.00;;;;;-144.24;100.00;78667.06;5056003;28;66615;-71
2024/02/03 03:58:23;;;;;;;;;1.00;0.00;;;;;-144.24;100.00;78826.59;5056023;28;45340;-70
2024/02/03 04:00:49;;;;;;;;;4.33;1.00;;;;;-144.24;100.00;78875.06;5055837;28;64780;-71
2024/02/03 04:03:14;;;;;;;;;2.67;1.33;;;;;-144.24;100.00;78869.00;5057417;28;45434;-71
2024/02/03 04:05:40;;;;;;;;;2.00;0.00;;;;;-144.24;100.00;78925.53;5055255;28;73567;-70
2024/02/03 04:08:06;;;;;;;;;2.00;2.00;;;;;-144.24;100.00;78832.66;5056921;28;45462;-71
2024/02/03 04:10:32;;;;;;;;;2.00;1.00;;;;;-144.24;100.00;78840.72;5039372;28;45268;-70
2024/02/03 04:12:57;;;;;;;;;2.00;1.00;;;;;-144.24;100.00;78889.19;5056966;28;45149;-71
2024/02/03 04:15:22;;;;;;;;;2.67;0.00;;;;;-144.24;100.00;78877.06;5056942;28;45683;-70
2024/02/03 04:17:49;;;;;;;;;1.00;1.00;;;;;-144.24;100.00;78901.31;5055425;28;45735;-70
2024/02/03 04:20:15;;;;;;;;;1.00;1.00;;;;;-144.24;100.00;78816.50;5054334;28;45654;-71
2024/02/03 04:22:40;;;;;;;;;3.33;2.00;;;;;-144.24;100.00;78883.13;5039273;28;45451;-70
2024/02/03 04:25:06;;;;;;;;;1.00;1.00;;;;;-144.24;100.00;78804.38;5060527;28;69034;-70
2024/02/03 04:27:31;;;;;;;;;2.00;1.00;;;;;-144.24;100.00;78846.78;5056532;28;45412;-71
2024/02/03 04:29:56;;;;;;;;;3.00;1.00;;;;;-144.24;100.00;79260.81;5031493;28;45690;-70
2024/02/03 04:32:22;;;;;;;;;0.00;0.00;;;;;-144.24;100.00;79323.41;5066621;28;60022;-70
2024/02/03 04:34:47;;;;;;;;;2.67;2.67;;;;;-144.24;100.00;79375.94;5067090;28;45586;-70
2024/02/03 04:37:13;;;;;;;;;0.33;0.33;;;;;-144.24;100.00;79416.34;5075686;28;69562;-71
2024/02/03 04:39:38;;;;;;;;;1.00;1.00;;;;;-144.24;100.00;79460.78;5077197;28;45385;-71
2024/02/03 04:42:03;;;;;;;;;1.67;1.00;;;;;-144.24;100.00;79357.75;5075689;28;61482;-70
2024/02/03 04:44:29;;;;;;;;;1.33;0.33;;;;;-144.24;100.00;79577.94;5076627;28;46689;-70
2024/02/03 04:46:54;;;;;;;;;1.00;1.00;;;;;-144.24;100.00;79499.16;5076345;28;45379;-70
2024/02/03 04:49:19;;;;;;;;;3.00;1.00;;;;;-144.24;100.00;79402.19;5076050;28;45370;-70
2024/02/03 04:51:45;;;;;;;;;3.00;1.00;;;;;-144.24;100.00;79517.31;5057457;28;64004;-70
2024/02/03 04:54:12;;;;;;;;;5.00;2.00;;;;;-144.24;100.00;79575.91;5076483;28;45472;-71
2024/02/03 04:56:37;;;;;;;;;2.00;1.00;;;;;-144.24;100.00;79608.22;5077140;28;46038;-70
2024/02/03 04:59:02;;;;;;;;;0.00;0.00;;;;;-144.24;100.00;79646.59;5074168;28;67567;-72
2024/02/03 05:01:28;;;;;;;;;1.00;1.00;;;;;-144.24;100.00;79796.06;5071482;28;60709;-72
2024/02/03 05:03:53;;;;;;;;;3.00;0.00;;;;;-144.24;100.00;79638.53;5076407;28;46421;-70
2024/02/03 05:06:22;;;;;;;;;1.00;1.00;;;;;-144.24;100.00;79575.91;5076302;28;45573;-70
2024/02/03 05:08:47;;;;;;;;;2.33;1.00;;;;;-144.24;100.00;79678.91;5075165;28;45517;-70
2024/02/03 05:11:13;;;;;;;;;2.00;0.67;;;;;-144.24;100.00;79697.09;5058272;28;45482;-70
2024/02/03 05:13:38;;;;;;;;;2.33;1.00;;;;;-144.24;100.00;79543.59;5058133;28;47114;-70
2024/02/03 05:16:03;;;;;;;;;0.67;0.00;;;;;-144.24;100.00;79660.75;5075375;28;72059;-71
2024/02/03 05:18:29;;;;;;;;;1.00;1.00;;;;;-144.24;100.00;79523.38;5076112;28;45522;-70
2024/02/03 05:20:55;;;;;;;;;2.00;2.00;;;;;-144.24;100.00;79592.06;5076578;28;45462;-70
2024/02/03 05:23:20;;;;;;;;;1.00;1.00;;;;;-144.24;100.00;79412.28;5057557;28;46836;-70
2024/02/03 05:25:46;;;;;;;;;1.33;1.33;;;;;-144.24;100.00;79656.69;5076312;28;45409;-72
2024/02/03 05:28:11;;;;;;;;;2.33;1.00;;;;;-144.24;100.00;79577.94;5076372;28;45310;-70
2024/02/03 05:30:37;;;;;;;;;6.00;0.00;;;;;-144.24;100.00;79313.31;5058001;28;45402;-70
2024/02/03 05:33:02;;;;;;;;;1.00;1.00;;;;;-144.24;100.00;79472.88;5075915;28;45547;-70
2024/02/03 05:35:27;;;;;;;;;1.00;1.00;;;;;-144.24;100.00;79596.09;5068781;28;45343;-70
2024/02/03 05:37:53;;;;;;;;;1.67;1.67;;;;;-144.24;100.00;79355.75;5055280;28;66457;-71
2024/02/03 05:40:18;;;;;;;;;2.33;1.00;;;;;-144.24;100.00;79250.72;5056383;28;61316;-71
2024/02/03 05:42:43;;;;;;;;;1.00;1.00;;;;;-144.24;100.00;79369.88;5058496;28;70005;-70
2024/02/03 05:45:09;;;;;;;;;2.00;0.67;;;;;-144.24;100.00;79373.91;5057543;28;70322;-72
2024/02/03 05:47:34;;;;;;;;;1.00;1.00;;;;;-144.24;100.00;79262.84;5059631;28;45466;-70
2024/02/03 05:50:00;;;;;;;;;2.33;0.33;;;;;-144.24;100.00;79442.59;5058429;28;60282;-72
2024/02/03 05:52:25;;;;;;;;;0.33;0.33;;;;;-144.24;100.00;79345.63;5060380;28;70761;-70
2024/02/03 05:54:51;;;;;;;;;4.00;1.00;;;;;-144.24;100.00;79345.63;5058629;28;66431;-73
2024/02/03 05:57:17;;;;;;;;;0.33;0.33;;;;;-144.24;100.00;79513.28;5058847;28;45388;-71
2024/02/03 05:59:45;;;;;;;;;2.33;1.00;;;;;-144.24;100.00;79400.19;5036152;28;45335;-72
2024/02/03 06:02:12;;;;;;;;;2.00;1.00;;;;;-144.24;100.00;79454.72;5058046;28;45510;-70
2024/02/03 06:04:39;;;;;;;;;1.33;0.67;;;;;-144.24;100.00;79652.66;5024469;28;45299;-70
2024/02/03 06:07:04;;;;;;;;;0.00;0.00;;;;;-144.24;100.00;79521.38;5041239;28;45419;-71
2024/02/03 06:09:30;;;;;;;;;0.67;0.67;;;;;-144.24;100.00;79499.16;5040960;28;45406;-70
2024/02/03 06:11:55;;;;;;;;;0.67;0.67;;;;;-144.24;100.00;79567.81;5058190;28;72949;-72
2024/02/03 06:14:20;;;;;;;;;0.00;0.00;;;;;-144.24;100.00;79547.63;5029497;28;53781;-70
2024/02/03 06:16:46;;;;;;;;;3.00;1.00;;;;;-144.24;100.00;79676.91;5058946;28;45214;-71
2024/02/03 06:19:11;;;;;;;;;0.00;0.00;;;;;-144.24;100.00;79628.41;5053476;28;45649;-70
2024/02/03 06:21:37;;;;;;;;;1.00;1.00;;;;;-144.24;100.00;79553.69;5059649;28;54779;-71
2024/02/03 06:24:02;;;;;;;;;1.00;1.00;;;;;-144.24;100.00;79618.31;5030210;28;45466;-70
2024/02/03 06:26:30;;;;;;;;;2.00;1.00;;;;;-144.24;100.00;79854.66;5062202;28;45492;-70
2024/02/03 06:28:56;;;;;;;;;1.00;1.00;;;;;-144.24;100.00;79648.63;5043032;28;45647;-71
2024/02/03 06:31:22;;;;;;;;;4.67;1.00;;;;;-144.24;100.00;79794.06;5063152;28;46312;-70
2024/02/03 06:36:22;;;;;;;;;1.00;1.00;;;;;-144.24;100.00;79788.00;5026187;26;45455;-70
2024/02/03 06:38:48;;;;;;;;;1.00;1.00;;;;;-144.24;100.00;79992.03;5054614;28;45437;-70
2024/02/03 06:41:18;;;;;;;;;2.33;0.00;;;;;-144.24;100.00;79957.69;5078323;27;71129;-69
2024/02/03 06:43:43;;;;;;;;;0.67;0.67;;;;;-144.24;100.00;79935.47;5078831;27;45668;-70
2024/02/03 06:46:09;;;;;;;;;2.00;0.67;;;;;-144.24;100.00;79981.91;5065102;28;45381;-70
2024/02/03 06:48:35;;;;;;;;;1.00;1.00;;;;;-144.24;100.00;79969.81;5084749;27;45426;-72
2024/02/03 06:51:00;;;;;;;;;0.67;0.00;;;;;-144.24;100.00;80006.16;5077388;27;69959;-70
2024/02/03 06:53:26;;;;;;;;;1.00;1.00;;;;;-144.24;100.00;80121.31;5071358;27;63533;-70
2024/02/03 06:55:51;;;;;;;;;0.67;0.67;;;;;-144.24;100.00;80131.41;5082761;27;56044;-69
2024/02/03 06:58:16;;;;;;;;;1.00;1.00;;;;;-144.24;100.00;80145.56;5071251;28;65749;-71
2024/02/03 07:00:42;;;;;;;;;2.67;1.00;;;;;-144.24;100.00;80230.41;5075563;28;74636;-69
2024/02/03 07:03:07;;;;;;;;;0.00;0.00;;;;;-144.24;100.00;80131.41;5077623;28;45271;-69
2024/02/03 07:05:33;;;;;;;;;0.00;0.00;;;;;-144.24;100.00;80165.75;5077503;28;62662;-70
2024/02/03 07:07:58;;;;;;;;;0.00;0.00;;;;;-144.24;100.00;80105.16;5078130;28;49472;-69
2024/02/03 07:10:23;;;;;;;;;1.67;0.00;;;;;-144.24;100.00;80206.16;5077832;28;46738;-70
2024/02/03 07:12:49;;;;;;;;;0.00;0.00;;;;;-144.24;100.00;80089.00;5072113;28;60264;-71
2024/02/03 07:15:14;;;;;;;;;0.00;0.00;;;;;-144.24;100.00;80089.00;5071839;28;45509;-70
2024/02/03 07:17:39;;;;;;;;;1.67;1.00;;;;;-144.24;100.00;80185.97;5049711;28;45669;-72
2024/02/03 07:20:06;;;;;;;;;1.00;1.00;;;;;-144.24;100.00;79927.38;5073870;28;72254;-70
2024/02/03 07:22:31;;;;;;;;;0.00;0.00;;;;;-144.24;100.00;80190.00;5077898;28;45450;-70
2024/02/03 07:24:56;;;;;;;;;0.67;0.00;;;;;-144.24;100.00;80068.78;5054620;28;46007;-73
2024/02/03 07:27:22;;;;;;;;;1.00;0.00;;;;;-144.24;100.00;80091.00;5075543;28;63777;-72
2024/02/03 07:29:47;;;;;;;;;1.67;0.33;;;;;-144.24;100.00;80076.88;5074439;27;71732;-72
2024/02/03 07:32:12;;;;;;;;;4.67;1.00;;;;;-144.24;100.00;80151.63;5076506;28;65266;-70
2024/02/03 07:34:44;;;;;;;;;0.67;0.00;;;;;-144.24;100.00;79977.88;5054076;28;45502;-71
2024/02/03 07:37:09;;;;;;;;;3.67;1.00;;;;;-144.24;100.00;80105.16;5043703;28;45525;-72
2024/02/03 07:39:35;;;;;;;;;0.00;0.00;;;;;-144.24;100.00;80103.13;5055988;28;45946;-70
2024/02/03 07:42:02;;;;;;;;;0.00;0.00;;;;;-144.24;100.00;80242.53;5075539;27;45331;-72
2024/02/03 07:44:27;;;;;;;;;0.33;0.33;;;;;-144.24;100.00;80034.44;5075319;27;45493;-74
2024/02/03 07:46:53;;;;;;;;;2.00;0.00;;;;;-144.24;100.00;80103.13;5059344;27;45236;-70
2024/02/03 07:49:18;;;;;;;;;1.00;1.00;;;;;-144.24;100.00;79987.97;5078344;27;46428;-70
2024/02/03 07:51:43;;;;;;;;;0.00;0.00;;;;;-144.24;100.00;79969.81;5075178;27;69986;-70
2024/02/03 07:54:09;;;;;;;;;1.00;1.00;;;;;-144.24;100.00;79981.91;5077556;28;45449;-70
2024/02/03 07:56:34;;;;;;;;;0.00;0.00;;;;;-144.24;100.00;79901.13;5058906;28;45393;-70
2024/02/03 07:58:59;;;;;;;;;1.67;1.00;;;;;-144.24;100.00;79852.63;5076588;27;62182;-73
2024/02/03 08:01:26;;;;;;;;;3.00;0.00;;;;;-144.24;100.00;79874.84;5073797;27;66539;-71
2024/02/03 08:03:51;;;;;;;;;0.00;0.00;;;;;-144.24;100.00;79850.63;5075382;28;45541;-70
2024/02/03 08:06:17;;;;;;;;;1.00;0.00;;;;;-144.24;100.00;79775.88;5072944;28;45576;-70
2024/02/03 08:08:42;;;;;;;;;2.00;0.00;;;;;-144.24;100.00;79737.50;5076544;28;62224;-70
2024/02/03 08:11:09;;;;;;;;;3.00;1.67;;;;;-144.24;100.00;79634.47;5076231;28;69237;-74
2024/02/03 08:13:34;;;;;;;;;4.00;1.00;;;;;-144.24;100.00;79652.66;5051538;28;45459;-70
2024/02/03 08:15:59;;;;;;;;;1.00;1.00;;;;;-144.24;100.00;79699.13;5075850;28;66394;-71
2024/02/03 08:18:25;;;;;;;;;2.00;0.33;;;;;-144.24;100.00;79779.91;5076792;28;46450;-70
2024/02/03 08:20:51;;;;;;;;;1.00;1.00;;;;;-144.24;100.00;79682.97;5077439;28;45493;-69
2024/02/03 08:23:16;;;;;;;;;1.00;1.00;;;;;-144.24;100.00;79816.28;5076423;27;45533;-70
2024/02/03 08:25:41;;;;;;;;;0.00;0.00;;;;;-144.24;100.00;79891.03;5055027;28;45582;-71
2024/02/03 08:28:08;;;;;;;;;1.67;1.00;;;;;-144.24;100.00;79790.03;5076625;28;45997;-70
2024/02/03 08:30:33;;;;;;;;;2.00;0.67;;;;;-144.24;100.00;79737.50;5076819;27;45353;-70
2024/02/03 08:32:58;;;;;;;;;4.33;1.00;;;;;-144.24;100.00;79763.75;5056743;28;66165;-71
2024/02/03 08:35:24;;;;;;;;;1.00;1.00;;;;;-144.24;100.00;79731.44;5071464;28;54033;-70
2024/02/03 08:37:49;;;;;;;;;0.33;0.33;;;;;-144.24;100.00;79790.03;5055102;28;48443;-70
2024/02/03 08:40:18;;;;;;;;;5.00;3.00;;;;;-144.24;100.00;79602.16;5070230;28;45366;-70
2024/02/03 08:42:43;;;;;;;;;3.67;3.00;;;;;-144.24;100.00;79604.19;5056424;28;45385;-73
2024/02/03 08:45:09;;;;;;;;;1.00;1.00;;;;;-144.24;100.00;79563.78;5058228;28;45533;-71
2024/02/03 08:47:34;;;;;;;;;2.67;2.00;;;;;-144.24;100.00;79390.06;5055866;28;69827;-70
2024/02/03 08:50:00;;;;;;;;;3.00;3.00;;;;;-144.24;100.00;79563.78;5074850;28;45328;-72
2024/02/03 08:52:25;;;;;;;;;1.67;1.00;;;;;-144.24;100.00;79549.66;5074695;28;68845;-71
2024/02/03 08:54:50;;;;;;;;;1.00;1.00;;;;;-144.24;100.00;79650.63;5070568;28;62065;-70
2024/02/03 08:57:16;;;;;;;;;1.67;1.67;;;;;-144.24;100.00;79436.53;5073368;28;70602;-69
2024/02/03 08:59:41;;;;;;;;;1.00;1.00;;;;;-144.24;100.00;79472.88;5076344;28;45209;-70
2024/02/03 09:02:07;;;;;;;;;1.00;1.00;;;;;-144.24;100.00;79412.28;5071246;28;45721;-72
2024/02/03 09:04:32;;;;;;;;;2.33;1.33;;;;;-144.24;100.00;79246.66;5076560;28;45255;-70
2024/02/03 09:06:57;;;;;;;;;3.00;2.00;;;;;-144.24;100.00;79270.91;5067906;28;62174;-70
2024/02/03 09:09:23;;;;;;;;;2.00;1.00;;;;;-144.24;100.00;79089.13;5075765;27;45345;-71
2024/02/03 09:11:48;;;;;;;;;0.00;0.00;;;;;-144.24;100.00;79058.84;5064047;27;64695;-72
2024/02/03 09:14:13;;;;;;;;;1.00;1.00;;;;;-144.24;100.00;78953.81;5063341;28;63961;-73
2024/02/03 09:16:39;;;;;;;;;4.67;0.00;;;;;-144.24;100.00;78931.59;5057795;28;46567;-74
2024/02/03 09:19:04;;;;;;;;;1.00;1.00;;;;;-144.24;100.00;78691.28;5068853;28;69324;-73
2024/02/03 09:21:29;;;;;;;;;0.00;0.00;;;;;-144.24;100.00;78667.06;5051480;28;60287;-73
2024/02/03 09:23:55;;;;;;;;;1.00;0.00;;;;;-144.24;100.00;78511.56;5060463;28;46506;-71
2024/02/03 09:26:20;;;;;;;;;3.00;0.00;;;;;-144.24;100.00;78505.50;5061308;28;46598;-72
2024/02/03 09:28:46;;;;;;;;;2.00;0.67;;;;;-144.24;100.00;78493.38;5053463;28;63071;-73
2024/02/03 09:31:18;;;;;;;;;3.33;0.33;;;;;-144.24;100.00;78366.16;5067166;28;45500;-71
2024/02/03 09:33:44;;;;;;;;;0.33;0.33;;;;;-144.24;100.00;78364.16;5068398;28;46866;-69
2024/02/03 09:36:09;;;;;;;;;2.00;1.00;;;;;-144.24;100.00;78463.09;5073207;28;46831;-72
2024/02/03 09:38:34;;;;;;;;;0.00;0.00;;;;;-144.24;100.00;78519.63;5072133;27;60247;-72
2024/02/03 09:41:00;;;;;;;;;0.00;0.00;;;;;-144.24;100.00;78448.97;5080753;27;51113;-70
2024/02/03 09:43:25;;;;;;;;;0.00;0.00;;;;;-144.24;100.00;78410.59;5075685;27;60593;-69
2024/02/03 09:45:51;;;;;;;;;1.33;0.00;;;;;-144.24;100.00;78485.31;5077199;28;45803;-68
2024/02/03 09:48:16;;;;;;;;;0.00;0.00;;;;;-144.24;100.00;78663.00;5069375;27;45489;-68
2024/02/03 09:50:42;;;;;;;;;0.00;0.00;;;;;-144.24;100.00;78681.19;5076545;27;45488;-67
2024/02/03 09:53:10;;;;;;;;;0.00;0.00;;;;;-144.24;100.00;78675.13;5074296;28;45413;-69
2024/02/03 09:55:35;;;;;;;;;0.00;0.00;;;;;-144.24;100.00;78929.59;5071789;27;45489;-69
2024/02/03 09:58:02;;;;;;;;;1.00;0.00;;;;;-144.24;100.00;78887.19;5056903;27;46777;-69
2024/02/03 10:00:28;;;;;;;;;2.00;0.00;;;;;-144.24;100.00;78893.22;5075957;28;45412;-69
2024/02/03 10:02:53;;;;;;;;;2.00;0.00;;;;;-144.24;100.00;79004.31;5078917;28;45435;-69
2024/02/03 10:05:31;;;;;;;;;0.00;0.00;;;;;-144.24;100.00;78875.06;5077288;28;45744;-71
2024/02/03 10:08:03;;;;;;;;;0.67;0.67;;;;;-144.24;100.00;78901.31;5077219;28;45449;-70
2024/02/03 10:10:30;;;;;;;;;0.00;0.00;;;;;-144.24;100.00;79072.97;5075202;27;45571;-70
2024/02/03 10:13:03;;;;;;;;;0.00;0.00;;;;;-144.24;100.00;78959.88;5054963;28;45461;-72
2024/02/03 10:15:28;;;;;;;;;1.00;1.00;;;;;-144.24;100.00;79032.59;5071561;28;46177;-70
2024/02/03 10:17:58;;;;;;;;;0.00;0.00;;;;;-144.24;100.00;79137.59;5073748;27;67321;-69
2024/02/03 10:20:25;;;;;;;;;0.00;0.00;;;;;-144.24;100.00;79169.94;5057456;28;45549;-70
2024/02/03 10:22:51;;;;;;;;;2.00;0.00;;;;;-144.24;100.00;79169.94;5075328;28;45487;-69
2024/02/03 10:25:16;;;;;;;;;2.00;1.00;;;;;-144.24;100.00;79244.66;5059640;28;46315;-69
2024/02/03 10:27:42;;;;;;;;;2.00;0.00;;;;;-144.24;100.00;79327.47;5075117;27;45488;-70
2024/02/03 10:30:07;;;;;;;;;2.00;0.33;;;;;-144.24;100.00;79501.16;5075887;28;46527;-71
2024/02/03 10:32:33;;;;;;;;;1.00;1.00;;;;;-144.24;100.00;79369.88;5075820;28;45577;-69
2024/02/03 10:34:58;;;;;;;;;1.67;1.00;;;;;-144.24;100.00;79446.63;5073208;27;46376;-71
2024/02/03 10:37:23;;;;;;;;;2.33;1.00;;;;;-144.24;100.00;79583.97;5055436;28;71660;-70
2024/02/03 10:39:49;;;;;;;;;0.00;0.00;;;;;-144.24;100.00;79771.84;5061171;28;67226;-70
2024/02/03 10:42:23;;;;;;;;;2.67;2.00;;;;;-144.24;100.00;79886.97;5064969;28;57555;-71
2024/02/03 10:44:49;;;;;;;;;2.00;2.00;;;;;-144.24;100.00;80064.75;5068086;28;46792;-71
2024/02/03 10:47:20;;;;;;;;;2.33;2.33;;;;;-144.24;100.00;79931.41;5074566;28;45467;-69
2024/02/03 10:49:46;;;;;;;;;3.00;2.00;;;;;-144.24;100.00;80549.63;5071497;27;45527;-71
2024/02/03 10:52:11;;;;;;;;;15.33;15.33;;;;;-144.24;100.00;80973.91;5077550;28;45381;-70
2024/02/03 10:54:37;;;;;;;;;17.67;15.00;;;;;-144.24;100.00;81074.94;5052813;28;68837;-70
2024/02/03 10:57:04;;;;;;;;;3.00;3.00;;;;;-144.24;100.00;81339.66;5082081;27;45482;-70
2024/02/03 10:59:30;;;;;;;;;4.00;4.00;;;;;-144.24;100.00;81539.72;5057452;28;61978;-69
2024/02/03 11:01:55;;;;;;;;;2.33;2.33;;;;;-144.24;100.00;81814.56;5072293;28;62885;-70
2024/02/03 11:04:21;;;;;;;;;3.00;1.00;;;;;-144.24;100.00;82024.78;5076049;27;46844;-70